sensor_id;sensor_type;location;lat;lon;timestamp;P1;durP1;ratioP1;P2;durP2;ratioP2
76117;SDS011;64851;50.232;20.364;2023-02-17T00:02:13;36.20;;;13.20;;
76117;SDS011;64851;50.232;20.364;2023-02-17T00:04:49;25.40;;;12.10;;
76117;SDS011;64851;50.232;20.364;2023-02-17T00:07:39;30.90;;;13.00;;
76117;SDS011;64851;50.232;20.364;2023-02-17T00:10:14;30.70;;;13.80;;
76117;SDS011;64851;50.232;20.364;2023-02-17T00:13:09;30.00;;;13.20;;
76117;SDS011;64851;50.232;20.364;2023-02-17T00:16:05;32.20;;;12.60;;
76117;SDS011;64851;50.232;20.364;2023-02-17T00:18:41;29.90;;;12.50;;
76117;SDS011;64851;50.232;20.364;2023-02-17T00:21:30;28.30;;;11.50;;
76117;SDS011;64851;50.232;20.364;2023-02-17T00:24:05;26.70;;;11.80;;
76117;SDS011;64851;50.232;20.364;2023-02-17T00:26:53;25.60;;;11.40;;
76117;SDS011;64851;50.232;20.364;2023-02-17T00:29:28;25.20;;;11.90;;
76117;SDS011;64851;50.232;20.364;2023-02-17T00:32:16;30.00;;;12.30;;
76117;SDS011;64851;50.232;20.364;2023-02-17T00:34:51;31.30;;;12.90;;
76117;SDS011;64851;50.232;20.364;2023-02-17T00:37:46;29.00;;;12.50;;
76117;SDS011;64851;50.232;20.364;2023-02-17T00:40:21;30.40;;;13.20;;
76117;SDS011;64851;50.232;20.364;2023-02-17T00:43:09;31.50;;;13.20;;
76117;SDS011;64851;50.232;20.364;2023-02-17T00:45:44;34.00;;;14.20;;
76117;SDS011;64851;50.232;20.364;2023-02-17T00:48:38;31.00;;;12.20;;
76117;SDS011;64851;50.232;20.364;2023-02-17T00:51:33;34.10;;;12.20;;
76117;SDS011;64851;50.232;20.364;2023-02-17T00:54:08;29.70;;;12.50;;
76117;SDS011;64851;50.232;20.364;2023-02-17T00:56:56;32.00;;;12.70;;
76117;SDS011;64851;50.232;20.364;2023-02-17T00:59:32;28.80;;;11.30;;
76117;SDS011;64851;50.232;20.364;2023-02-17T01:02:19;31.70;;;12.80;;
76117;SDS011;64851;50.232;20.364;2023-02-17T01:04:54;28.80;;;11.80;;
76117;SDS011;64851;50.232;20.364;2023-02-17T01:07:42;30.30;;;12.20;;
76117;SDS011;64851;50.232;20.364;2023-02-17T01:10:17;28.70;;;13.00;;
76117;SDS011;64851;50.232;20.364;2023-02-17T01:13:05;35.30;;;13.50;;
76117;SDS011;64851;50.232;20.364;2023-02-17T01:15:45;34.60;;;12.40;;
76117;SDS011;64851;50.232;20.364;2023-02-17T01:18:34;29.60;;;11.80;;
76117;SDS011;64851;50.232;20.364;2023-02-17T01:21:19;33.00;;;13.30;;
76117;SDS011;64851;50.232;20.364;2023-02-17T01:24:15;28.50;;;12.10;;
76117;SDS011;64851;50.232;20.364;2023-02-17T01:27:10;34.70;;;13.70;;
76117;SDS011;64851;50.232;20.364;2023-02-17T01:29:45;29.20;;;14.00;;
76117;SDS011;64851;50.232;20.364;2023-02-17T01:32:33;30.30;;;12.40;;
76117;SDS011;64851;50.232;20.364;2023-02-17T01:35:10;25.70;;;11.60;;
76117;SDS011;64851;50.232;20.364;2023-02-17T01:37:58;27.60;;;12.50;;
76117;SDS011;64851;50.232;20.364;2023-02-17T01:40:33;28.90;;;13.30;;
76117;SDS011;64851;50.232;20.364;2023-02-17T01:43:21;28.00;;;11.80;;
76117;SDS011;64851;50.232;20.364;2023-02-17T01:45:57;24.40;;;11.60;;
76117;SDS011;64851;50.232;20.364;2023-02-17T01:48:47;32.30;;;13.40;;
76117;SDS011;64851;50.232;20.364;2023-02-17T01:51:25;29.20;;;13.70;;
76117;SDS011;64851;50.232;20.364;2023-02-17T01:54:16;27.70;;;12.30;;
76117;SDS011;64851;50.232;20.364;2023-02-17T01:57:15;34.60;;;12.60;;
76117;SDS011;64851;50.232;20.364;2023-02-17T02:00:12;31.10;;;14.20;;
76117;SDS011;64851;50.232;20.364;2023-02-17T02:03:09;30.30;;;12.20;;
76117;SDS011;64851;50.232;20.364;2023-02-17T02:05:45;28.50;;;11.90;;
76117;SDS011;64851;50.232;20.364;2023-02-17T02:08:34;30.00;;;12.60;;
76117;SDS011;64851;50.232;20.364;2023-02-17T02:11:21;31.70;;;13.10;;
76117;SDS011;64851;50.232;20.364;2023-02-17T02:14:09;32.20;;;13.80;;
76117;SDS011;64851;50.232;20.364;2023-02-17T02:16:53;31.90;;;14.10;;
76117;SDS011;64851;50.232;20.364;2023-02-17T02:33:03;25.80;;;10.80;;
76117;SDS011;64851;50.232;20.364;2023-02-17T02:36:09;28.80;;;12.00;;
76117;SDS011;64851;50.232;20.364;2023-02-17T02:39:08;29.30;;;13.50;;
76117;SDS011;64851;50.232;20.364;2023-02-17T02:41:52;28.50;;;12.70;;
76117;SDS011;64851;50.232;20.364;2023-02-17T02:44:35;28.80;;;12.70;;
76117;SDS011;64851;50.232;20.364;2023-02-17T02:50:30;28.20;;;12.30;;
76117;SDS011;64851;50.232;20.364;2023-02-17T02:53:22;29.70;;;12.70;;
76117;SDS011;64851;50.232;20.364;2023-02-17T02:59:25;25.50;;;11.10;;
76117;SDS011;64851;50.232;20.364;2023-02-17T03:05:38;26.50;;;11.10;;
76117;SDS011;64851;50.232;20.364;2023-02-17T03:08:19;29.60;;;12.60;;
76117;SDS011;64851;50.232;20.364;2023-02-17T03:11:12;27.60;;;12.20;;
76117;SDS011;64851;50.232;20.364;2023-02-17T03:13:47;29.20;;;12.10;;
76117;SDS011;64851;50.232;20.364;2023-02-17T03:16:35;26.20;;;11.50;;
76117;SDS011;64851;50.232;20.364;2023-02-17T03:19:11;26.30;;;12.10;;
76117;SDS011;64851;50.232;20.364;2023-02-17T03:22:02;30.00;;;13.00;;
76117;SDS011;64851;50.232;20.364;2023-02-17T03:24:51;24.30;;;10.90;;
76117;SDS011;64851;50.232;20.364;2023-02-17T03:27:41;23.30;;;11.30;;
76117;SDS011;64851;50.232;20.364;2023-02-17T03:30:16;27.80;;;12.10;;
76117;SDS011;64851;50.232;20.364;2023-02-17T03:33:04;31.00;;;11.90;;
76117;SDS011;64851;50.232;20.364;2023-02-17T03:35:39;27.60;;;11.30;;
76117;SDS011;64851;50.232;20.364;2023-02-17T03:38:26;28.90;;;12.00;;
76117;SDS011;64851;50.232;20.364;2023-02-17T03:41:01;29.80;;;12.00;;
76117;SDS011;64851;50.232;20.364;2023-02-17T03:43:56;28.00;;;12.00;;
76117;SDS011;64851;50.232;20.364;2023-02-17T03:46:51;29.70;;;11.90;;
76117;SDS011;64851;50.232;20.364;2023-02-17T03:49:26;28.20;;;12.20;;
76117;SDS011;64851;50.232;20.364;2023-02-17T03:52:14;30.50;;;12.80;;
76117;SDS011;64851;50.232;20.364;2023-02-17T03:54:49;26.60;;;12.40;;
76117;SDS011;64851;50.232;20.364;2023-02-17T03:57:37;26.30;;;11.90;;
76117;SDS011;64851;50.232;20.364;2023-02-17T04:00:12;26.10;;;11.70;;
76117;SDS011;64851;50.232;20.364;2023-02-17T04:03:00;27.10;;;11.20;;
76117;SDS011;64851;50.232;20.364;2023-02-17T04:05:43;28.30;;;13.00;;
76117;SDS011;64851;50.232;20.364;2023-02-17T04:08:31;25.50;;;11.80;;
76117;SDS011;64851;50.232;20.364;2023-02-17T04:11:06;26.90;;;11.30;;
76117;SDS011;64851;50.232;20.364;2023-02-17T04:14:02;24.90;;;11.30;;
76117;SDS011;64851;50.232;20.364;2023-02-17T04:16:37;27.80;;;11.90;;
76117;SDS011;64851;50.232;20.364;2023-02-17T04:19:25;20.60;;;10.50;;
76117;SDS011;64851;50.232;20.364;2023-02-17T04:22:00;23.80;;;10.90;;
76117;SDS011;64851;50.232;20.364;2023-02-17T04:24:55;24.80;;;11.40;;
76117;SDS011;64851;50.232;20.364;2023-02-17T04:27:50;24.10;;;10.80;;
76117;SDS011;64851;50.232;20.364;2023-02-17T04:30:25;25.40;;;11.70;;
76117;SDS011;64851;50.232;20.364;2023-02-17T04:33:13;27.50;;;11.80;;
76117;SDS011;64851;50.232;20.364;2023-02-17T04:35:48;23.30;;;11.30;;
76117;SDS011;64851;50.232;20.364;2023-02-17T04:38:46;27.30;;;11.30;;
76117;SDS011;64851;50.232;20.364;2023-02-17T04:41:27;27.90;;;12.20;;
76117;SDS011;64851;50.232;20.364;2023-02-17T04:44:15;24.30;;;12.20;;
76117;SDS011;64851;50.232;20.364;2023-02-17T04:46:56;24.60;;;11.90;;
76117;SDS011;64851;50.232;20.364;2023-02-17T04:49:37;23.00;;;11.40;;
76117;SDS011;64851;50.232;20.364;2023-02-17T04:52:18;27.40;;;11.90;;
76117;SDS011;64851;50.232;20.364;2023-02-17T04:55:00;24.30;;;11.70;;
76117;SDS011;64851;50.232;20.364;2023-02-17T04:57:41;25.30;;;11.50;;
76117;SDS011;64851;50.232;20.364;2023-02-17T05:00:29;27.50;;;12.00;;
76117;SDS011;64851;50.232;20.364;2023-02-17T05:03:04;23.90;;;11.50;;
76117;SDS011;64851;50.232;20.364;2023-02-17T05:05:59;28.30;;;12.30;;
76117;SDS011;64851;50.232;20.364;2023-02-17T05:08:34;25.80;;;11.40;;
76117;SDS011;64851;50.232;20.364;2023-02-17T05:11:22;29.20;;;12.60;;
76117;SDS011;64851;50.232;20.364;2023-02-17T05:13:57;24.00;;;11.20;;
76117;SDS011;64851;50.232;20.364;2023-02-17T05:16:52;25.30;;;11.40;;
76117;SDS011;64851;50.232;20.364;2023-02-17T05:19:47;24.80;;;11.50;;
76117;SDS011;64851;50.232;20.364;2023-02-17T05:22:22;28.40;;;13.50;;
76117;SDS011;64851;50.232;20.364;2023-02-17T05:25:10;25.10;;;11.40;;
76117;SDS011;64851;50.232;20.364;2023-02-17T05:28:05;22.60;;;12.60;;
76117;SDS011;64851;50.232;20.364;2023-02-17T05:30:39;25.10;;;12.60;;
76117;SDS011;64851;50.232;20.364;2023-02-17T05:33:27;25.70;;;11.60;;
76117;SDS011;64851;50.232;20.364;2023-02-17T05:36:08;28.60;;;12.30;;
76117;SDS011;64851;50.232;20.364;2023-02-17T05:38:57;23.90;;;12.10;;
76117;SDS011;64851;50.232;20.364;2023-02-17T05:41:31;29.10;;;13.30;;
76117;SDS011;64851;50.232;20.364;2023-02-17T05:44:19;25.10;;;11.30;;
76117;SDS011;64851;50.232;20.364;2023-02-17T05:47:00;28.00;;;13.00;;
76117;SDS011;64851;50.232;20.364;2023-02-17T05:49:41;23.20;;;11.50;;
76117;SDS011;64851;50.232;20.364;2023-02-17T05:52:22;25.30;;;11.50;;
76117;SDS011;64851;50.232;20.364;2023-02-17T05:55:03;26.20;;;11.10;;
76117;SDS011;64851;50.232;20.364;2023-02-17T05:57:45;28.80;;;12.30;;
76117;SDS011;64851;50.232;20.364;2023-02-17T06:00:26;27.50;;;12.50;;
76117;SDS011;64851;50.232;20.364;2023-02-17T06:03:07;25.50;;;12.70;;
76117;SDS011;64851;50.232;20.364;2023-02-17T06:05:48;27.80;;;12.20;;
76117;SDS011;64851;50.232;20.364;2023-02-17T06:08:29;27.00;;;12.40;;
76117;SDS011;64851;50.232;20.364;2023-02-17T06:11:10;26.00;;;12.20;;
76117;SDS011;64851;50.232;20.364;2023-02-17T06:13:51;28.70;;;12.30;;
76117;SDS011;64851;50.232;20.364;2023-02-17T06:16:39;27.60;;;12.20;;
76117;SDS011;64851;50.232;20.364;2023-02-17T06:19:13;25.60;;;11.70;;
76117;SDS011;64851;50.232;20.364;2023-02-17T06:22:01;27.50;;;12.60;;
76117;SDS011;64851;50.232;20.364;2023-02-17T06:24:35;30.30;;;12.80;;
76117;SDS011;64851;50.232;20.364;2023-02-17T06:27:30;24.60;;;11.70;;
76117;SDS011;64851;50.232;20.364;2023-02-17T06:30:25;26.40;;;13.20;;
76117;SDS011;64851;50.232;20.364;2023-02-17T06:33:00;31.10;;;13.80;;
76117;SDS011;64851;50.232;20.364;2023-02-17T06:35:48;26.10;;;12.00;;
76117;SDS011;64851;50.232;20.364;2023-02-17T06:38:24;29.10;;;14.60;;
76117;SDS011;64851;50.232;20.364;2023-02-17T06:41:19;24.90;;;11.40;;
76117;SDS011;64851;50.232;20.364;2023-02-17T06:43:54;21.30;;;10.40;;
76117;SDS011;64851;50.232;20.364;2023-02-17T06:46:49;26.70;;;12.00;;
76117;SDS011;64851;50.232;20.364;2023-02-17T06:49:44;25.50;;;12.50;;
76117;SDS011;64851;50.232;20.364;2023-02-17T06:52:19;27.00;;;11.90;;
76117;SDS011;64851;50.232;20.364;2023-02-17T06:55:14;24.90;;;11.90;;
76117;SDS011;64851;50.232;20.364;2023-02-17T06:57:48;20.20;;;9.60;;
76117;SDS011;64851;50.232;20.364;2023-02-17T07:00:36;27.40;;;10.60;;
76117;SDS011;64851;50.232;20.364;2023-02-17T07:03:10;20.50;;;8.20;;
76117;SDS011;64851;50.232;20.364;2023-02-17T07:05:58;32.90;;;13.20;;
76117;SDS011;64851;50.232;20.364;2023-02-17T07:08:40;26.90;;;13.80;;
76117;SDS011;64851;50.232;20.364;2023-02-17T07:11:28;29.70;;;11.10;;
76117;SDS011;64851;50.232;20.364;2023-02-17T07:14:05;24.50;;;11.80;;
76117;SDS011;64851;50.232;20.364;2023-02-17T07:16:53;25.90;;;12.90;;
76117;SDS011;64851;50.232;20.364;2023-02-17T07:19:27;27.50;;;12.20;;
76117;SDS011;64851;50.232;20.364;2023-02-17T07:22:15;28.80;;;12.10;;
76117;SDS011;64851;50.232;20.364;2023-02-17T07:24:49;27.50;;;12.10;;
76117;SDS011;64851;50.232;20.364;2023-02-17T07:27:37;22.20;;;12.00;;
76117;SDS011;64851;50.232;20.364;2023-02-17T07:30:11;26.40;;;11.80;;
76117;SDS011;64851;50.232;20.364;2023-02-17T07:33:00;25.90;;;12.90;;
76117;SDS011;64851;50.232;20.364;2023-02-17T07:35:34;25.10;;;12.90;;
76117;SDS011;64851;50.232;20.364;2023-02-17T07:41:09;22.70;;;10.60;;
76117;SDS011;64851;50.232;20.364;2023-02-17T07:43:58;21.90;;;10.70;;
76117;SDS011;64851;50.232;20.364;2023-02-17T07:46:39;24.90;;;11.60;;
76117;SDS011;64851;50.232;20.364;2023-02-17T07:49:27;26.10;;;11.50;;
76117;SDS011;64851;50.232;20.364;2023-02-17T07:52:08;24.10;;;11.80;;
76117;SDS011;64851;50.232;20.364;2023-02-17T07:55:03;25.10;;;12.30;;
76117;SDS011;64851;50.232;20.364;2023-02-17T07:57:58;25.30;;;12.00;;
76117;SDS011;64851;50.232;20.364;2023-02-17T08:00:33;25.60;;;12.40;;
76117;SDS011;64851;50.232;20.364;2023-02-17T08:03:28;28.20;;;13.80;;
76117;SDS011;64851;50.232;20.364;2023-02-17T08:06:25;30.30;;;14.30;;
76117;SDS011;64851;50.232;20.364;2023-02-17T08:09:00;26.40;;;12.90;;
76117;SDS011;64851;50.232;20.364;2023-02-17T08:12:10;26.90;;;13.30;;
76117;SDS011;64851;50.232;20.364;2023-02-17T08:15:08;28.80;;;12.70;;
76117;SDS011;64851;50.232;20.364;2023-02-17T08:17:57;25.10;;;13.50;;
76117;SDS011;64851;50.232;20.364;2023-02-17T08:20:34;26.00;;;13.10;;
76117;SDS011;64851;50.232;20.364;2023-02-17T08:23:22;22.80;;;11.70;;
76117;SDS011;64851;50.232;20.364;2023-02-17T08:25:57;29.00;;;11.70;;
76117;SDS011;64851;50.232;20.364;2023-02-17T08:28:52;25.40;;;13.40;;
76117;SDS011;64851;50.232;20.364;2023-02-17T08:31:50;24.30;;;12.00;;
76117;SDS011;64851;50.232;20.364;2023-02-17T08:34:26;25.90;;;12.80;;
76117;SDS011;64851;50.232;20.364;2023-02-17T08:37:14;26.90;;;12.50;;
76117;SDS011;64851;50.232;20.364;2023-02-17T08:39:49;21.60;;;11.60;;
76117;SDS011;64851;50.232;20.364;2023-02-17T08:42:39;24.20;;;11.70;;
76117;SDS011;64851;50.232;20.364;2023-02-17T08:45:14;28.10;;;13.20;;
76117;SDS011;64851;50.232;20.364;2023-02-17T08:48:09;27.20;;;12.90;;
76117;SDS011;64851;50.232;20.364;2023-02-17T08:51:04;23.80;;;11.70;;
76117;SDS011;64851;50.232;20.364;2023-02-17T08:53:39;22.40;;;10.80;;
76117;SDS011;64851;50.232;20.364;2023-02-17T08:56:28;24.00;;;11.50;;
76117;SDS011;64851;50.232;20.364;2023-02-17T08:59:04;23.10;;;10.80;;
76117;SDS011;64851;50.232;20.364;2023-02-17T09:01:53;18.30;;;9.60;;
76117;SDS011;64851;50.232;20.364;2023-02-17T09:04:29;21.60;;;10.60;;
76117;SDS011;64851;50.232;20.364;2023-02-17T09:07:17;22.70;;;11.30;;
76117;SDS011;64851;50.232;20.364;2023-02-17T09:09:52;20.50;;;11.30;;
76117;SDS011;64851;50.232;20.364;2023-02-17T09:12:40;19.30;;;11.00;;
76117;SDS011;64851;50.232;20.364;2023-02-17T09:15:15;19.80;;;10.70;;
76117;SDS011;64851;50.232;20.364;2023-02-17T09:18:05;18.70;;;10.30;;
76117;SDS011;64851;50.232;20.364;2023-02-17T09:20:41;18.80;;;9.80;;
76117;SDS011;64851;50.232;20.364;2023-02-17T09:23:36;18.80;;;10.00;;
76117;SDS011;64851;50.232;20.364;2023-02-17T09:26:31;20.70;;;11.20;;
76117;SDS011;64851;50.232;20.364;2023-02-17T09:29:28;19.70;;;10.50;;
76117;SDS011;64851;50.232;20.364;2023-02-17T09:32:27;19.50;;;11.00;;
76117;SDS011;64851;50.232;20.364;2023-02-17T09:35:03;19.90;;;11.70;;
76117;SDS011;64851;50.232;20.364;2023-02-17T09:37:58;23.50;;;12.10;;
76117;SDS011;64851;50.232;20.364;2023-02-17T09:40:53;20.40;;;11.10;;
76117;SDS011;64851;50.232;20.364;2023-02-17T09:43:37;22.30;;;11.40;;
76117;SDS011;64851;50.232;20.364;2023-02-17T09:46:26;20.40;;;10.50;;
76117;SDS011;64851;50.232;20.364;2023-02-17T09:49:17;17.80;;;9.40;;
76117;SDS011;64851;50.232;20.364;2023-02-17T09:55:15;23.50;;;12.00;;
76117;SDS011;64851;50.232;20.364;2023-02-17T09:58:35;18.90;;;9.70;;
76117;SDS011;64851;50.232;20.364;2023-02-17T10:01:18;19.60;;;9.90;;
76117;SDS011;64851;50.232;20.364;2023-02-17T10:04:11;17.50;;;9.10;;
76117;SDS011;64851;50.232;20.364;2023-02-17T10:07:06;18.40;;;10.30;;
76117;SDS011;64851;50.232;20.364;2023-02-17T10:10:02;20.20;;;10.50;;
76117;SDS011;64851;50.232;20.364;2023-02-17T10:12:49;18.80;;;10.40;;
76117;SDS011;64851;50.232;20.364;2023-02-17T10:15:42;22.10;;;10.50;;
76117;SDS011;64851;50.232;20.364;2023-02-17T10:18:20;22.20;;;10.00;;
76117;SDS011;64851;50.232;20.364;2023-02-17T10:21:17;20.90;;;9.90;;
76117;SDS011;64851;50.232;20.364;2023-02-17T10:23:55;21.90;;;10.20;;
76117;SDS011;64851;50.232;20.364;2023-02-17T10:29:40;20.40;;;10.00;;
76117;SDS011;64851;50.232;20.364;2023-02-17T10:32:51;19.70;;;11.30;;
76117;SDS011;64851;50.232;20.364;2023-02-17T10:35:53;24.40;;;11.40;;
76117;SDS011;64851;50.232;20.364;2023-02-17T10:41:50;21.90;;;12.10;;
76117;SDS011;64851;50.232;20.364;2023-02-17T10:44:45;21.20;;;12.00;;
76117;SDS011;64851;50.232;20.364;2023-02-17T10:47:20;20.90;;;10.80;;
76117;SDS011;64851;50.232;20.364;2023-02-17T10:50:20;22.10;;;10.90;;
76117;SDS011;64851;50.232;20.364;2023-02-17T10:53:17;17.20;;;10.30;;
76117;SDS011;64851;50.232;20.364;2023-02-17T10:56:08;21.90;;;11.80;;
76117;SDS011;64851;50.232;20.364;2023-02-17T10:59:02;21.80;;;12.00;;
76117;SDS011;64851;50.232;20.364;2023-02-17T11:01:48;17.90;;;10.10;;
76117;SDS011;64851;50.232;20.364;2023-02-17T11:04:38;22.80;;;11.80;;
76117;SDS011;64851;50.232;20.364;2023-02-17T11:07:23;21.90;;;11.50;;
76117;SDS011;64851;50.232;20.364;2023-02-17T11:10:29;22.20;;;11.20;;
76117;SDS011;64851;50.232;20.364;2023-02-17T11:13:33;19.20;;;11.20;;
76117;SDS011;64851;50.232;20.364;2023-02-17T11:16:28;22.60;;;11.70;;
76117;SDS011;64851;50.232;20.364;2023-02-17T11:19:29;21.10;;;11.10;;
76117;SDS011;64851;50.232;20.364;2023-02-17T11:22:33;19.70;;;11.10;;
76117;SDS011;64851;50.232;20.364;2023-02-17T11:28:21;20.90;;;11.20;;
76117;SDS011;64851;50.232;20.364;2023-02-17T11:31:29;19.40;;;10.40;;
76117;SDS011;64851;50.232;20.364;2023-02-17T11:34:12;22.20;;;10.50;;
76117;SDS011;64851;50.232;20.364;2023-02-17T11:37:02;18.20;;;10.30;;
76117;SDS011;64851;50.232;20.364;2023-02-17T11:39:48;19.60;;;10.80;;
76117;SDS011;64851;50.232;20.364;2023-02-17T11:42:40;19.10;;;9.90;;
76117;SDS011;64851;50.232;20.364;2023-02-17T11:45:17;18.40;;;10.40;;
76117;SDS011;64851;50.232;20.364;2023-02-17T11:48:13;18.00;;;10.50;;
76117;SDS011;64851;50.232;20.364;2023-02-17T11:57:48;12.70;;;7.90;;
76117;SDS011;64851;50.232;20.364;2023-02-17T12:36:36;9.70;;;5.00;;
76117;SDS011;64851;50.232;20.364;2023-02-17T12:39:17;10.70;;;6.20;;
76117;SDS011;64851;50.232;20.364;2023-02-17T12:42:19;10.60;;;5.50;;
76117;SDS011;64851;50.232;20.364;2023-02-17T12:45:15;8.10;;;4.70;;
76117;SDS011;64851;50.232;20.364;2023-02-17T12:54:25;11.20;;;5.30;;
76117;SDS011;64851;50.232;20.364;2023-02-17T13:01:07;12.90;;;6.00;;
76117;SDS011;64851;50.232;20.364;2023-02-17T13:03:45;11.50;;;5.10;;
76117;SDS011;64851;50.232;20.364;2023-02-17T13:06:35;12.00;;;6.40;;
76117;SDS011;64851;50.232;20.364;2023-02-17T13:09:26;10.00;;;5.40;;
76117;SDS011;64851;50.232;20.364;2023-02-17T13:15:01;11.40;;;5.80;;
76117;SDS011;64851;50.232;20.364;2023-02-17T13:17:55;10.20;;;5.10;;
76117;SDS011;64851;50.232;20.364;2023-02-17T13:23:45;9.70;;;5.30;;
76117;SDS011;64851;50.232;20.364;2023-02-17T13:26:35;10.20;;;5.60;;
76117;SDS011;64851;50.232;20.364;2023-02-17T13:32:00;8.80;;;4.50;;
76117;SDS011;64851;50.232;20.364;2023-02-17T13:34:58;11.60;;;5.10;;
76117;SDS011;64851;50.232;20.364;2023-02-17T13:37:55;9.80;;;5.20;;
76117;SDS011;64851;50.232;20.364;2023-02-17T13:40:34;9.90;;;4.90;;
76117;SDS011;64851;50.232;20.364;2023-02-17T13:43:24;10.80;;;5.60;;
76117;SDS011;64851;50.232;20.364;2023-02-17T13:46:00;9.40;;;4.50;;
76117;SDS011;64851;50.232;20.364;2023-02-17T13:49:03;8.50;;;4.50;;
76117;SDS011;64851;50.232;20.364;2023-02-17T13:51:39;8.10;;;4.40;;
76117;SDS011;64851;50.232;20.364;2023-02-17T13:54:28;8.80;;;4.90;;
76117;SDS011;64851;50.232;20.364;2023-02-17T13:57:24;7.40;;;4.40;;
76117;SDS011;64851;50.232;20.364;2023-02-17T14:03:04;8.10;;;4.30;;
76117;SDS011;64851;50.232;20.364;2023-02-17T14:06:00;8.60;;;4.70;;
76117;SDS011;64851;50.232;20.364;2023-02-17T14:08:36;7.30;;;4.40;;
76117;SDS011;64851;50.232;20.364;2023-02-17T14:11:26;7.60;;;4.40;;
76117;SDS011;64851;50.232;20.364;2023-02-17T14:14:05;7.80;;;3.90;;
76117;SDS011;64851;50.232;20.364;2023-02-17T14:16:58;7.30;;;4.30;;
76117;SDS011;64851;50.232;20.364;2023-02-17T14:19:42;8.40;;;4.80;;
76117;SDS011;64851;50.232;20.364;2023-02-17T14:22:33;7.90;;;4.20;;
76117;SDS011;64851;50.232;20.364;2023-02-17T14:25:13;7.90;;;5.00;;
76117;SDS011;64851;50.232;20.364;2023-02-17T14:28:23;8.40;;;4.50;;
76117;SDS011;64851;50.232;20.364;2023-02-17T14:31:06;8.10;;;4.60;;
76117;SDS011;64851;50.232;20.364;2023-02-17T14:34:02;11.50;;;4.90;;
76117;SDS011;64851;50.232;20.364;2023-02-17T14:36:38;9.40;;;4.60;;
76117;SDS011;64851;50.232;20.364;2023-02-17T14:39:33;8.50;;;4.80;;
76117;SDS011;64851;50.232;20.364;2023-02-17T14:42:08;9.70;;;4.90;;
76117;SDS011;64851;50.232;20.364;2023-02-17T14:44:56;7.10;;;4.20;;
76117;SDS011;64851;50.232;20.364;2023-02-17T14:47:31;9.30;;;4.60;;
76117;SDS011;64851;50.232;20.364;2023-02-17T14:50:20;9.00;;;4.50;;
76117;SDS011;64851;50.232;20.364;2023-02-17T14:52:55;8.20;;;4.80;;
76117;SDS011;64851;50.232;20.364;2023-02-17T14:55:44;6.70;;;3.90;;
76117;SDS011;64851;50.232;20.364;2023-02-17T14:58:22;10.90;;;4.70;;
76117;SDS011;64851;50.232;20.364;2023-02-17T15:01:15;8.70;;;4.30;;
76117;SDS011;64851;50.232;20.364;2023-02-17T15:03:51;9.70;;;4.60;;
76117;SDS011;64851;50.232;20.364;2023-02-17T15:06:47;10.00;;;5.10;;
76117;SDS011;64851;50.232;20.364;2023-02-17T15:09:27;9.30;;;4.90;;
76117;SDS011;64851;50.232;20.364;2023-02-17T15:12:17;7.70;;;3.70;;
76117;SDS011;64851;50.232;20.364;2023-02-17T15:14:54;9.80;;;4.80;;
76117;SDS011;64851;50.232;20.364;2023-02-17T15:17:42;9.00;;;4.40;;
76117;SDS011;64851;50.232;20.364;2023-02-17T15:20:17;9.30;;;4.40;;
76117;SDS011;64851;50.232;20.364;2023-02-17T15:23:10;8.50;;;5.10;;
76117;SDS011;64851;50.232;20.364;2023-02-17T15:25:49;8.50;;;4.40;;
76117;SDS011;64851;50.232;20.364;2023-02-17T15:28:37;9.40;;;4.70;;
76117;SDS011;64851;50.232;20.364;2023-02-17T15:31:12;8.50;;;4.30;;
76117;SDS011;64851;50.232;20.364;2023-02-17T15:34:01;9.10;;;4.50;;
76117;SDS011;64851;50.232;20.364;2023-02-17T15:36:36;10.00;;;4.90;;
76117;SDS011;64851;50.232;20.364;2023-02-17T15:39:26;8.60;;;4.80;;
76117;SDS011;64851;50.232;20.364;2023-02-17T15:42:11;9.10;;;5.70;;
76117;SDS011;64851;50.232;20.364;2023-02-17T15:45:10;9.40;;;4.60;;
76117;SDS011;64851;50.232;20.364;2023-02-17T15:48:19;7.20;;;3.80;;
76117;SDS011;64851;50.232;20.364;2023-02-17T15:51:02;8.60;;;5.10;;
76117;SDS011;64851;50.232;20.364;2023-02-17T15:53:53;7.80;;;4.40;;
76117;SDS011;64851;50.232;20.364;2023-02-17T15:56:47;10.20;;;5.90;;
76117;SDS011;64851;50.232;20.364;2023-02-17T15:59:40;9.60;;;4.50;;
76117;SDS011;64851;50.232;20.364;2023-02-17T16:02:19;9.80;;;4.80;;
76117;SDS011;64851;50.232;20.364;2023-02-17T16:05:14;7.80;;;4.50;;
76117;SDS011;64851;50.232;20.364;2023-02-17T16:07:50;10.30;;;5.20;;
76117;SDS011;64851;50.232;20.364;2023-02-17T16:10:38;8.00;;;4.00;;
76117;SDS011;64851;50.232;20.364;2023-02-17T16:13:15;9.30;;;4.90;;
76117;SDS011;64851;50.232;20.364;2023-02-17T16:16:08;10.20;;;4.60;;
76117;SDS011;64851;50.232;20.364;2023-02-17T16:18:55;8.10;;;3.90;;
76117;SDS011;64851;50.232;20.364;2023-02-17T16:21:45;7.90;;;4.20;;
76117;SDS011;64851;50.232;20.364;2023-02-17T16:24:26;9.70;;;4.90;;
76117;SDS011;64851;50.232;20.364;2023-02-17T16:27:09;8.30;;;5.00;;
76117;SDS011;64851;50.232;20.364;2023-02-17T16:29:52;9.30;;;4.60;;
76117;SDS011;64851;50.232;20.364;2023-02-17T16:32:33;7.20;;;4.40;;
76117;SDS011;64851;50.232;20.364;2023-02-17T16:35:18;7.80;;;4.20;;
76117;SDS011;64851;50.232;20.364;2023-02-17T16:38:15;7.20;;;3.90;;
76117;SDS011;64851;50.232;20.364;2023-02-17T16:40:58;7.40;;;3.90;;
76117;SDS011;64851;50.232;20.364;2023-02-17T16:43:41;5.50;;;3.00;;
76117;SDS011;64851;50.232;20.364;2023-02-17T16:46:27;6.90;;;3.70;;
76117;SDS011;64851;50.232;20.364;2023-02-17T16:49:21;6.80;;;4.00;;
76117;SDS011;64851;50.232;20.364;2023-02-17T16:52:17;8.10;;;4.10;;
76117;SDS011;64851;50.232;20.364;2023-02-17T16:55:03;7.10;;;3.80;;
76117;SDS011;64851;50.232;20.364;2023-02-17T16:57:45;6.80;;;3.70;;
76117;SDS011;64851;50.232;20.364;2023-02-17T17:00:27;8.30;;;3.80;;
76117;SDS011;64851;50.232;20.364;2023-02-17T17:03:09;6.90;;;3.20;;
76117;SDS011;64851;50.232;20.364;2023-02-17T17:05:57;7.10;;;3.70;;
76117;SDS011;64851;50.232;20.364;2023-02-17T17:08:31;8.40;;;4.50;;
76117;SDS011;64851;50.232;20.364;2023-02-17T17:11:23;7.40;;;4.50;;
76117;SDS011;64851;50.232;20.364;2023-02-17T17:14:01;7.50;;;4.50;;
76117;SDS011;64851;50.232;20.364;2023-02-17T17:16:51;7.40;;;3.80;;
76117;SDS011;64851;50.232;20.364;2023-02-17T17:19:28;7.80;;;4.50;;
76117;SDS011;64851;50.232;20.364;2023-02-17T17:22:16;7.50;;;4.00;;
76117;SDS011;64851;50.232;20.364;2023-02-17T17:24:50;7.30;;;3.90;;
76117;SDS011;64851;50.232;20.364;2023-02-17T17:27:40;8.00;;;5.10;;
76117;SDS011;64851;50.232;20.364;2023-02-17T17:30:18;6.70;;;3.60;;
76117;SDS011;64851;50.232;20.364;2023-02-17T17:33:10;7.10;;;3.40;;
76117;SDS011;64851;50.232;20.364;2023-02-17T17:35:44;6.10;;;3.10;;
76117;SDS011;64851;50.232;20.364;2023-02-17T17:38:33;6.70;;;3.70;;
76117;SDS011;64851;50.232;20.364;2023-02-17T17:41:11;6.30;;;3.40;;
76117;SDS011;64851;50.232;20.364;2023-02-17T17:44:03;5.10;;;2.70;;
76117;SDS011;64851;50.232;20.364;2023-02-17T17:46:39;5.80;;;3.20;;
76117;SDS011;64851;50.232;20.364;2023-02-17T17:49:29;5.70;;;3.30;;